createdAt,value
2022-08-22T00:01:14.305Z,5.25
2022-08-22T00:02:57.376Z,5.15
2022-08-22T00:03:55.059Z,4.55
2022-08-22T00:06:31.517Z,4.30
2022-08-22T00:09:21.872Z,5.25
2022-08-22T00:11:57.452Z,4.60
2022-08-22T00:14:38.535Z,4.68
2022-08-22T00:17:22.867Z,4.57
2022-08-22T00:19:59.591Z,4.90
2022-08-22T00:22:36.133Z,4.80
2022-08-22T00:25:25.762Z,4.97
2022-08-22T00:27:57.902Z,5.13
2022-08-22T00:30:30.639Z,5.28
2022-08-22T00:33:06.491Z,4.50
2022-08-22T00:35:44.866Z,4.57
2022-08-22T00:38:18.781Z,5.18
2022-08-22T00:40:57.379Z,4.75
2022-08-22T00:44:11.579Z,4.93
2022-08-22T00:47:02.262Z,5.30
2022-08-22T00:49:56.218Z,4.78
2022-08-22T00:52:56.522Z,5.28
2022-08-22T00:55:39.548Z,5.18
2022-08-22T00:58:53.651Z,5.28
2022-08-22T01:01:27.414Z,4.63
2022-08-22T01:04:28.708Z,5.50
2022-08-22T01:07:22.616Z,4.93
2022-08-22T01:10:04.408Z,4.93
2022-08-22T01:12:54.331Z,5.00
2022-08-22T01:15:27.979Z,5.00
2022-08-22T01:18:28.621Z,5.13
2022-08-22T01:21:49.029Z,5.05
2022-08-22T01:25:02.538Z,5.65
2022-08-22T01:27:57.926Z,5.22
2022-08-22T01:30:48.220Z,5.30
2022-08-22T01:34:02.539Z,5.50
2022-08-22T01:37:04.448Z,5.03
2022-08-22T01:39:50.010Z,5.22
2022-08-22T01:42:48.167Z,5.70
2022-08-22T01:45:51.773Z,5.10
2022-08-22T01:48:25.187Z,5.65
2022-08-22T01:50:58.625Z,5.63
2022-08-22T01:53:40.159Z,5.93
2022-08-22T01:56:14.315Z,6.10
2022-08-22T01:58:54.943Z,5.75
2022-08-22T02:01:36.548Z,6.13
2022-08-22T02:04:11.113Z,6.43
2022-08-22T02:06:48.566Z,6.50
2022-08-22T02:09:33.011Z,6.03
2022-08-22T02:12:22.268Z,6.50
2022-08-22T02:15:00.037Z,5.80
2022-08-22T02:17:32.514Z,6.80
2022-08-22T02:20:07.656Z,6.78
2022-08-22T02:22:44.545Z,5.57
2022-08-22T02:25:21.362Z,6.75
2022-08-22T02:27:55.570Z,6.88
2022-08-22T02:30:31.396Z,6.55
2022-08-22T02:33:06.957Z,6.10
2022-08-22T02:35:41.088Z,6.05
2022-08-22T02:38:24.489Z,6.20
2022-08-22T02:41:07.577Z,6.28
2022-08-22T02:43:44.838Z,6.00
2022-08-22T02:46:23.245Z,6.30
2022-08-22T02:49:00.830Z,6.55
2022-08-22T02:51:37.557Z,6.30
2022-08-22T02:54:17.603Z,7.53
2022-08-22T02:56:54.026Z,6.70
2022-08-22T02:59:33.640Z,6.95
2022-08-22T03:02:36.298Z,6.63
2022-08-22T03:05:19.100Z,6.75
2022-08-22T03:07:57.831Z,7.28
2022-08-22T03:10:30.306Z,7.18
2022-08-22T03:13:08.747Z,6.38
2022-08-22T03:15:48.619Z,6.07
2022-08-22T03:18:26.068Z,6.18
2022-08-22T03:21:01.459Z,6.93
2022-08-22T03:23:41.539Z,7.20
2022-08-22T03:26:16.402Z,7.30
2022-08-22T03:28:59.656Z,6.97
2022-08-22T03:31:31.094Z,6.70
2022-08-22T03:34:22.690Z,7.00
2022-08-22T03:37:04.107Z,7.40
2022-08-22T03:39:50.076Z,6.68
2022-08-22T03:42:47.306Z,7.13
2022-08-22T03:46:02.913Z,7.63
2022-08-22T03:48:53.146Z,7.13
2022-08-22T03:51:34.614Z,7.47
2022-08-22T03:54:23.863Z,7.55
2022-08-22T03:57:30.463Z,7.95
2022-08-22T04:00:20.914Z,8.20
2022-08-22T04:03:35.711Z,7.13
2022-08-22T04:06:28.984Z,7.38
2022-08-22T04:09:27.842Z,7.70
2022-08-22T04:12:24.934Z,7.97
2022-08-22T04:15:22.423Z,7.43
2022-08-22T04:18:03.386Z,7.82
2022-08-22T04:21:19.846Z,7.90
2022-08-22T04:24:17.028Z,7.00
2022-08-22T04:26:52.514Z,6.93
2022-08-22T04:29:26.702Z,7.03
2022-08-22T04:32:01.991Z,7.20
2022-08-22T04:34:40.218Z,7.10
2022-08-22T04:37:16.091Z,7.28
2022-08-22T04:39:50.014Z,7.20
2022-08-22T04:42:33.110Z,7.25
2022-08-22T04:45:10.636Z,6.43
2022-08-22T04:47:43.520Z,7.38
2022-08-22T04:50:22.387Z,7.40
2022-08-22T04:53:05.671Z,7.13
2022-08-22T04:55:46.598Z,6.88
2022-08-22T04:58:31.646Z,6.50
2022-08-22T05:01:17.065Z,6.88
2022-08-22T05:03:53.700Z,7.15
2022-08-22T05:06:26.774Z,6.85
2022-08-22T05:08:59.852Z,7.28
2022-08-22T05:11:32.742Z,6.82
2022-08-22T05:14:05.603Z,7.13
2022-08-22T05:16:39.262Z,7.82
2022-08-22T05:19:16.469Z,7.53
2022-08-22T05:21:50.536Z,7.47
2022-08-22T05:24:28.148Z,7.55
2022-08-22T05:27:01.562Z,7.90
2022-08-22T05:29:33.023Z,7.82
2022-08-22T05:32:07.001Z,7.20
2022-08-22T05:34:39.234Z,7.07
2022-08-22T05:37:13.402Z,8.20
2022-08-22T05:39:47.740Z,8.35
2022-08-22T05:42:33.147Z,8.38
2022-08-22T05:45:03.832Z,8.10
2022-08-22T05:47:37.984Z,8.23
2022-08-22T05:50:09.335Z,7.97
2022-08-22T05:52:48.750Z,8.50
2022-08-22T05:55:26.099Z,8.35
2022-08-22T05:58:17.890Z,8.55
2022-08-22T06:00:51.825Z,8.68
2022-08-22T06:03:28.912Z,7.80
2022-08-22T06:06:00.670Z,8.02
2022-08-22T06:08:35.828Z,8.00
2022-08-22T06:11:10.191Z,6.80
2022-08-22T06:13:47.236Z,7.35
2022-08-22T06:16:20.465Z,7.07
2022-08-22T06:18:52.189Z,7.22
2022-08-22T06:21:38.628Z,8.00
2022-08-22T06:24:14.450Z,7.45
2022-08-22T06:26:48.719Z,7.63
2022-08-22T06:29:35.110Z,7.60
2022-08-22T06:32:11.412Z,7.05
2022-08-22T06:34:42.970Z,6.28
2022-08-22T06:37:21.199Z,5.45
2022-08-22T06:39:54.536Z,4.00
2022-08-22T06:42:26.306Z,3.90
2022-08-22T06:45:01.537Z,3.90
2022-08-22T06:47:33.855Z,3.50
2022-08-22T06:50:13.527Z,3.20
2022-08-22T06:52:53.265Z,3.20
2022-08-22T06:55:24.098Z,3.20
2022-08-22T06:57:57.243Z,3.15
2022-08-22T07:00:28.316Z,2.92
2022-08-22T07:03:00.254Z,3.15
2022-08-22T07:05:35.319Z,2.97
2022-08-22T07:08:09.052Z,3.20
2022-08-22T07:10:40.893Z,2.92
2022-08-22T07:13:16.053Z,2.58
2022-08-22T07:15:53.701Z,3.05
2022-08-22T07:18:26.640Z,3.42
2022-08-22T07:20:58.878Z,3.50
2022-08-22T07:23:34.207Z,3.10
2022-08-22T07:26:18.424Z,3.17
2022-08-22T07:28:58.426Z,2.80
2022-08-22T07:31:38.114Z,2.78
2022-08-22T07:34:25.657Z,2.83
2022-08-22T07:36:59.773Z,3.55
2022-08-22T07:39:34.225Z,2.45
2022-08-22T07:42:12.091Z,3.15
2022-08-22T07:44:56.973Z,3.15
2022-08-22T07:47:36.543Z,2.90
2022-08-22T07:50:13.249Z,2.65
2022-08-22T07:52:45.244Z,3.35
2022-08-22T07:55:19.967Z,2.83
2022-08-22T07:57:55.206Z,3.38
2022-08-22T08:00:24.811Z,3.05
2022-08-22T08:02:58.890Z,2.33
2022-08-22T08:05:31.465Z,2.55
2022-08-22T08:08:05.839Z,2.72
2022-08-22T08:10:37.742Z,2.60
2022-08-22T08:13:11.783Z,2.50
2022-08-22T08:15:42.082Z,2.40
2022-08-22T08:18:19.189Z,2.38
2022-08-22T08:20:51.887Z,2.55
2022-08-22T08:23:23.467Z,2.67
2022-08-22T08:26:08.595Z,2.50
2022-08-22T08:28:41.391Z,2.40
2022-08-22T08:31:24.265Z,2.03
2022-08-22T08:34:02.194Z,2.10
2022-08-22T08:36:49.316Z,2.22
2022-08-22T08:39:24.665Z,1.90
2022-08-22T08:42:31.679Z,2.00
2022-08-22T08:45:24.765Z,1.90
2022-08-22T08:48:15.971Z,1.70
2022-08-22T08:51:04.487Z,1.67
2022-08-22T08:54:12.893Z,2.10
2022-08-22T08:56:54.621Z,1.60
2022-08-22T08:59:34.918Z,2.05
2022-08-22T09:02:34.934Z,1.50
2022-08-22T09:05:35.669Z,1.30
2022-08-22T09:08:27.582Z,1.65
2022-08-22T09:11:28.136Z,1.80
2022-08-22T09:17:28.632Z,1.40
2022-08-22T09:20:20.501Z,1.30
2022-08-22T09:23:30.895Z,1.33
2022-08-22T09:26:06.248Z,1.13
2022-08-22T09:28:39.915Z,1.42
2022-08-22T09:31:48.279Z,1.23
2022-08-22T09:37:20.527Z,1.30
2022-08-22T09:39:59.030Z,1.52
2022-08-22T09:40:15.454Z,1.58
2022-08-22T09:40:16.617Z,1.10
2022-08-22T09:42:40.830Z,1.25
2022-08-22T09:45:42.963Z,1.40
2022-08-22T09:48:28.218Z,1.38
2022-08-22T09:51:31.988Z,1.40
2022-08-22T09:54:18.827Z,1.50
2022-08-22T09:57:01.666Z,1.67
2022-08-22T10:00:13.127Z,1.63
2022-08-22T10:02:51.765Z,1.30
2022-08-22T10:05:40.962Z,1.55
2022-08-22T10:08:20.917Z,1.40
2022-08-22T10:11:19.630Z,1.50
2022-08-22T10:13:57.878Z,1.40
2022-08-22T10:16:54.275Z,1.50
2022-08-22T10:19:29.832Z,1.20
2022-08-22T10:22:20.627Z,1.58
2022-08-22T10:24:59.918Z,1.83
2022-08-22T10:27:44.515Z,1.50
2022-08-22T10:30:18.897Z,1.60
2022-08-22T10:32:53.055Z,1.20
2022-08-22T10:35:28.437Z,1.45
2022-08-22T10:38:10.529Z,1.63
2022-08-22T10:40:48.031Z,1.40
2022-08-22T10:43:29.151Z,1.52
2022-08-22T10:46:07.125Z,1.55
2022-08-22T10:48:47.992Z,1.50
2022-08-22T10:51:29.883Z,1.50
2022-08-22T10:54:12.428Z,1.40
2022-08-22T10:56:45.507Z,1.50
2022-08-22T10:59:30.487Z,1.63
2022-08-22T11:02:14.755Z,1.30
2022-08-22T11:05:37.178Z,1.45
2022-08-22T11:08:48.882Z,1.60
2022-08-22T11:11:40.042Z,1.50
2022-08-22T11:14:26.100Z,1.35
2022-08-22T11:17:23.620Z,1.67
2022-08-22T11:20:19.422Z,1.20
2022-08-22T11:23:06.400Z,1.48
2022-08-22T11:25:53.910Z,1.27
2022-08-22T11:28:35.278Z,1.38
2022-08-22T11:31:10.056Z,1.23
2022-08-22T11:33:46.991Z,1.30
2022-08-22T11:36:27.389Z,1.33
2022-08-22T11:39:10.019Z,1.77
2022-08-22T11:41:58.948Z,1.55
2022-08-22T11:44:37.547Z,1.30
2022-08-22T11:47:24.179Z,1.60
2022-08-22T11:50:03.768Z,1.63
2022-08-22T11:52:58.137Z,1.70
2022-08-22T11:55:34.843Z,1.60
2022-08-22T11:58:25.504Z,1.30
2022-08-22T12:01:03.862Z,1.45
2022-08-22T12:03:44.218Z,1.85
2022-08-22T12:06:39.329Z,1.83
2022-08-22T12:09:14.213Z,1.60
2022-08-22T12:11:58.996Z,1.50
2022-08-22T12:14:39.007Z,1.30
2022-08-22T12:17:55.526Z,1.40
2022-08-22T12:20:35.183Z,1.70
2022-08-22T12:23:43.216Z,1.30
2022-08-22T12:26:30.117Z,1.33
2022-08-22T12:29:17.754Z,1.48
2022-08-22T12:32:22.790Z,1.90
2022-08-22T12:35:13.712Z,1.30
2022-08-22T12:38:03.619Z,1.50
2022-08-22T12:40:54.817Z,1.67
2022-08-22T12:43:42.757Z,1.67
2022-08-22T12:46:18.552Z,1.73
2022-08-22T12:49:11.235Z,1.40
2022-08-22T12:51:52.256Z,1.50
2022-08-22T12:54:46.779Z,1.15
2022-08-22T12:57:26.632Z,1.60
2022-08-22T13:00:01.891Z,1.13
2022-08-22T13:02:35.170Z,1.45
2022-08-22T13:05:19.642Z,1.40
2022-08-22T13:07:54.875Z,1.50
2022-08-22T13:10:47.160Z,1.50
2022-08-22T13:13:31.529Z,1.20
2022-08-22T13:16:02.619Z,1.20
2022-08-22T13:18:38.093Z,1.08
2022-08-22T13:21:15.174Z,1.08
2022-08-22T13:23:46.943Z,1.40
2022-08-22T13:26:31.639Z,1.70
2022-08-22T13:29:24.658Z,1.50
2022-08-22T13:31:59.295Z,1.20
2022-08-22T13:34:39.857Z,1.70
2022-08-22T13:37:16.290Z,1.00
2022-08-22T13:39:49.322Z,1.60
2022-08-22T13:42:29.754Z,1.15
2022-08-22T13:45:04.876Z,1.10
2022-08-22T13:47:39.255Z,1.17
2022-08-22T13:50:15.190Z,1.50
2022-08-22T13:52:52.224Z,1.00
2022-08-22T13:55:29.701Z,1.00
2022-08-22T13:58:06.933Z,1.05
2022-08-22T14:01:05.996Z,1.25
2022-08-22T14:03:45.455Z,1.40
2022-08-22T14:06:37.658Z,1.08
2022-08-22T14:09:31.786Z,1.10
2022-08-22T14:12:11.986Z,1.00
2022-08-22T14:14:46.081Z,1.20
2022-08-22T14:17:18.589Z,1.00
2022-08-22T14:19:59.014Z,1.10
2022-08-22T14:22:35.300Z,1.20
2022-08-22T14:25:10.305Z,1.00
2022-08-22T14:27:46.112Z,1.00
2022-08-22T14:30:18.891Z,1.15
2022-08-22T14:32:52.081Z,1.20
2022-08-22T14:35:33.582Z,1.10
2022-08-22T14:38:27.450Z,1.00
2022-08-22T14:41:05.472Z,1.00
2022-08-22T14:43:51.418Z,1.00
2022-08-22T14:46:26.732Z,1.23
2022-08-22T14:49:28.889Z,0.90
2022-08-22T14:52:03.380Z,1.08
2022-08-22T14:54:32.871Z,1.30
2022-08-22T14:57:10.062Z,1.08
2022-08-22T14:59:47.059Z,1.10
2022-08-22T15:02:26.429Z,1.33
2022-08-22T15:04:56.489Z,1.10
2022-08-22T15:07:27.875Z,1.23
2022-08-22T15:10:03.170Z,1.13
2022-08-22T15:12:36.374Z,1.30
2022-08-22T15:15:11.333Z,1.25
2022-08-22T15:17:45.101Z,1.25
2022-08-22T15:20:28.196Z,1.17
2022-08-22T15:23:01.355Z,1.33
2022-08-22T15:25:34.461Z,0.65
2022-08-22T15:28:14.099Z,1.00
2022-08-22T15:30:46.152Z,0.90
2022-08-22T15:33:24.516Z,0.90
2022-08-22T15:35:55.569Z,1.00
2022-08-22T15:38:36.464Z,1.00
2022-08-22T15:41:31.459Z,0.90
2022-08-22T15:44:14.807Z,1.08
2022-08-22T15:47:05.984Z,0.82
2022-08-22T15:49:50.539Z,1.00
2022-08-22T15:52:28.451Z,1.08
2022-08-22T15:55:18.440Z,0.90
2022-08-22T15:57:59.992Z,0.80
2022-08-22T16:00:43.363Z,1.10
2022-08-22T16:03:24.397Z,0.90
2022-08-22T16:05:56.226Z,0.95
2022-08-22T16:08:33.159Z,0.82
2022-08-22T16:11:27.484Z,1.05
2022-08-22T16:14:21.681Z,1.10
2022-08-22T16:17:01.418Z,1.27
2022-08-22T16:19:31.933Z,1.48
2022-08-22T16:22:09.638Z,1.10
2022-08-22T16:25:11.166Z,1.25
2022-08-22T16:27:56.642Z,1.20
2022-08-22T16:30:35.071Z,1.42
2022-08-22T16:33:17.701Z,1.13
2022-08-22T16:36:22.952Z,1.30
2022-08-22T16:38:55.545Z,1.25
2022-08-22T16:41:32.237Z,1.50
2022-08-22T16:44:23.002Z,1.35
2022-08-22T16:46:54.423Z,1.58
2022-08-22T16:49:32.149Z,1.60
2022-08-22T16:52:41.149Z,1.45
2022-08-22T16:55:40.679Z,1.40
2022-08-22T16:58:50.184Z,1.50
2022-08-22T17:01:36.187Z,1.38
2022-08-22T17:04:16.399Z,1.85
2022-08-22T17:07:15.473Z,1.67
2022-08-22T17:10:04.848Z,1.60
2022-08-22T17:12:49.143Z,1.50
2022-08-22T17:15:32.723Z,1.52
2022-08-22T17:18:15.180Z,1.60
2022-08-22T17:20:50.285Z,1.60
2022-08-22T17:23:31.556Z,1.27
2022-08-22T17:26:07.171Z,1.38
2022-08-22T17:28:42.745Z,1.67
2022-08-22T17:31:18.081Z,1.50
2022-08-22T17:34:02.658Z,1.52
2022-08-22T17:36:53.650Z,1.65
2022-08-22T17:39:38.831Z,1.50
2022-08-22T17:42:21.903Z,1.98
2022-08-22T17:44:57.674Z,1.70
2022-08-22T17:47:30.975Z,1.85
2022-08-22T17:50:08.029Z,1.80
2022-08-22T17:52:43.347Z,1.73
2022-08-22T17:55:19.462Z,1.48
2022-08-22T17:57:52.541Z,1.42
2022-08-22T18:00:30.492Z,1.65
2022-08-22T18:03:06.770Z,1.48
2022-08-22T18:05:41.434Z,1.33
2022-08-22T18:08:37.568Z,1.40
2022-08-22T18:11:10.602Z,1.45
2022-08-22T18:13:49.545Z,1.27
2022-08-22T18:16:25.445Z,1.40
2022-08-22T18:19:05.543Z,1.40
2022-08-22T18:21:38.407Z,1.50
2022-08-22T18:24:21.210Z,1.27
2022-08-22T18:26:59.283Z,1.50
2022-08-22T18:29:34.785Z,1.38
2022-08-22T18:32:11.125Z,1.52
2022-08-22T18:34:48.670Z,1.60
2022-08-22T18:37:23.079Z,1.40
2022-08-22T18:39:56.756Z,1.45
2022-08-22T18:42:30.984Z,1.55
2022-08-22T18:44:59.963Z,2.00
2022-08-22T18:47:32.689Z,1.52
2022-08-22T18:50:04.093Z,1.70
2022-08-22T18:52:41.402Z,1.42
2022-08-22T18:55:28.224Z,1.73
2022-08-22T18:58:27.246Z,1.90
2022-08-22T19:01:09.611Z,1.52
2022-08-22T19:03:50.914Z,1.90
2022-08-22T19:06:38.750Z,1.65
2022-08-22T19:09:28.487Z,1.73
2022-08-22T19:12:04.347Z,1.60
2022-08-22T19:15:06.037Z,1.92
2022-08-22T19:17:58.799Z,2.00
2022-08-22T19:20:49.987Z,2.20
2022-08-22T19:23:47.410Z,1.80
2022-08-22T19:26:32.391Z,1.80
2022-08-22T19:29:08.769Z,2.05
2022-08-22T19:31:48.013Z,2.42
2022-08-22T19:34:22.083Z,1.90
2022-08-22T19:37:32.972Z,2.35
2022-08-22T19:40:09.557Z,1.98
2022-08-22T19:42:40.575Z,1.92
2022-08-22T19:45:23.472Z,2.03
2022-08-22T19:48:00.625Z,1.80
2022-08-22T19:50:34.238Z,1.75
2022-08-22T19:53:14.664Z,2.00
2022-08-22T19:56:00.210Z,1.63
2022-08-22T19:58:40.161Z,1.90
2022-08-22T20:01:32.371Z,1.85
2022-08-22T20:04:10.181Z,2.10
2022-08-22T20:06:44.487Z,2.22
2022-08-22T20:09:28.094Z,1.85
2022-08-22T20:12:06.986Z,2.10
2022-08-22T20:14:37.203Z,2.05
2022-08-22T20:17:11.143Z,2.10
2022-08-22T20:22:45.121Z,2.40
2022-08-22T20:25:43.034Z,2.40
2022-08-22T20:28:28.347Z,1.98
2022-08-22T20:31:00.807Z,2.20
2022-08-22T20:33:33.751Z,2.72
2022-08-22T20:36:06.929Z,2.08
2022-08-22T20:38:59.451Z,1.83
2022-08-22T20:41:33.730Z,2.50
2022-08-22T20:44:11.137Z,2.45
2022-08-22T20:46:53.642Z,2.30
2022-08-22T20:49:28.644Z,2.10
2022-08-22T20:52:00.578Z,2.30
2022-08-22T20:54:32.203Z,2.20
2022-08-22T20:57:02.639Z,2.45
2022-08-22T20:59:39.796Z,1.98
2022-08-22T21:02:14.519Z,2.33
2022-08-22T21:04:50.477Z,2.30
2022-08-22T21:07:24.314Z,2.35
2022-08-22T21:10:21.613Z,2.40
2022-08-22T21:13:09.528Z,2.10
2022-08-22T21:15:41.489Z,2.20
2022-08-22T21:18:10.888Z,2.50
2022-08-22T21:20:41.007Z,2.20
2022-08-22T21:23:15.341Z,3.00
2022-08-22T21:25:58.370Z,2.35
2022-08-22T21:28:30.421Z,2.20
2022-08-22T21:30:59.666Z,2.10
2022-08-22T21:33:29.300Z,2.53
2022-08-22T21:36:00.727Z,2.53
2022-08-22T21:38:30.835Z,2.10
2022-08-22T21:41:05.654Z,2.83
2022-08-22T21:43:37.712Z,2.65
2022-08-22T21:46:06.680Z,1.90
2022-08-22T21:48:44.053Z,2.42
2022-08-22T21:51:24.180Z,2.13
2022-08-22T21:54:20.500Z,2.78
2022-08-22T21:56:49.377Z,2.38
2022-08-22T21:59:24.951Z,2.30
2022-08-22T22:01:55.458Z,2.58
2022-08-22T22:04:23.917Z,2.58
2022-08-22T22:06:53.237Z,2.25
2022-08-22T22:09:23.249Z,2.13
2022-08-22T22:11:51.959Z,2.47
2022-08-22T22:14:20.286Z,2.10
2022-08-22T22:16:49.237Z,2.60
2022-08-22T22:19:17.516Z,1.90
2022-08-22T22:21:46.987Z,2.50
2022-08-22T22:24:15.326Z,2.33
2022-08-22T22:26:45.838Z,2.25
2022-08-22T22:29:14.244Z,2.30
2022-08-22T22:31:43.275Z,2.40
2022-08-22T22:34:12.016Z,2.38
2022-08-22T22:36:41.747Z,2.03
2022-08-22T22:39:11.450Z,2.42
2022-08-22T22:41:39.800Z,2.20
2022-08-22T22:44:09.972Z,2.25
2022-08-22T22:46:38.746Z,2.30
2022-08-22T22:49:07.479Z,2.30
2022-08-22T22:51:36.142Z,2.40
2022-08-22T22:54:05.012Z,2.20
2022-08-22T22:56:33.886Z,2.63
2022-08-22T22:59:13.182Z,2.25
2022-08-22T23:02:06.378Z,1.90
2022-08-22T23:04:37.134Z,2.38
2022-08-22T23:07:07.682Z,2.15
2022-08-22T23:09:38.590Z,2.47
2022-08-22T23:12:14.053Z,2.13
2022-08-22T23:14:42.338Z,2.42
2022-08-22T23:17:13.398Z,2.25
2022-08-22T23:19:42.422Z,2.60
2022-08-22T23:22:14.600Z,2.30
2022-08-22T23:24:43.862Z,2.63
2022-08-22T23:27:13.098Z,2.80
2022-08-22T23:29:42.112Z,2.78
2022-08-22T23:32:13.286Z,3.30
2022-08-22T23:34:46.441Z,2.85
2022-08-22T23:37:18.158Z,2.80
2022-08-22T23:39:48.201Z,2.72
2022-08-22T23:42:18.394Z,2.90
2022-08-22T23:44:47.468Z,3.10
2022-08-22T23:47:17.730Z,2.97
2022-08-22T23:49:46.690Z,3.30
2022-08-22T23:52:15.959Z,2.70
2022-08-22T23:54:44.817Z,2.92
2022-08-22T23:57:13.311Z,2.83
2022-08-22T23:59:48.028Z,2.35
